Time;durP1;ratioP1;P1;durP2;ratioP2;P2;SDS_P1;SDS_P2;PMS_P1;PMS_P2;Temp;Humidity;BMP_temperature;BMP_pressure;BME280_temperature;BME280_humidity;BME280_pressure;Samples;Min_cycle;Max_cycle;Signal;HPM_P1;HPM_P2
2022/11/19 00:01:20;;;;;;;14.57;11.23;;;9.90;99.90;;;;;;5055251;28;20209;-86
2022/11/19 00:03:47;;;;;;;16.67;11.37;;;9.90;99.90;;;;;;5056504;28;20230;-88
2022/11/19 00:06:16;;;;;;;18.47;10.67;;;9.70;99.90;;;;;;5055173;28;20308;-92
2022/11/19 00:08:44;;;;;;;25.53;11.57;;;9.70;99.90;;;;;;5054116;28;20202;-84
2022/11/19 00:11:13;;;;;;;13.80;10.67;;;9.70;99.90;;;;;;5054589;28;20571;-85
2022/11/19 00:13:41;;;;;;;17.17;11.20;;;9.70;99.90;;;;;;5055315;28;20569;-91
2022/11/19 00:16:10;;;;;;;16.07;10.80;;;9.70;99.90;;;;;;5057828;28;20225;-87
2022/11/19 00:18:41;;;;;;;12.30;9.80;;;9.60;99.90;;;;;;5056329;28;20558;-91
2022/11/19 00:21:10;;;;;;;15.27;11.53;;;9.60;99.90;;;;;;5054875;28;20209;-87
2022/11/19 00:23:38;;;;;;;19.27;11.57;;;9.70;99.90;;;;;;5049747;28;20235;-87
2022/11/19 00:26:06;;;;;;;13.60;10.73;;;9.70;99.90;;;;;;5052918;28;20213;-91
2022/11/19 00:28:34;;;;;;;16.80;11.30;;;9.70;99.90;;;;;;5052879;28;20206;-89
2022/11/19 00:31:05;;;;;;;16.20;11.60;;;9.70;99.90;;;;;;5055755;28;20210;-91
2022/11/19 00:33:32;;;;;;;20.57;11.80;;;9.60;99.90;;;;;;5054498;28;20202;-88
2022/11/19 00:36:05;;;;;;;15.00;10.70;;;9.70;99.90;;;;;;5036862;28;20210;-92
2022/11/19 00:38:32;;;;;;;16.63;11.77;;;9.60;99.90;;;;;;5054159;28;20206;-85
2022/11/19 00:40:59;;;;;;;18.25;13.75;;;9.60;99.90;;;;;;5053395;28;20443;-88
2022/11/19 00:46:12;;;;;;;16.17;11.20;;;9.50;99.90;;;;;;5053198;28;20205;-86
2022/11/19 00:48:39;;;;;;;14.03;10.97;;;9.50;99.90;;;;;;5053337;28;20203;-87
2022/11/19 00:51:08;;;;;;;12.80;9.73;;;9.60;99.90;;;;;;5067201;28;20209;-87
2022/11/19 00:53:36;;;;;;;16.67;10.23;;;9.60;99.90;;;;;;5039838;28;20194;-86
2022/11/19 00:56:07;;;;;;;11.37;9.57;;;9.60;99.90;;;;;;5053133;28;20658;-86
2022/11/19 00:58:34;;;;;;;14.93;9.27;;;9.50;99.90;;;;;;5058625;28;20205;-86
2022/11/19 01:01:01;;;;;;;16.93;9.83;;;9.50;99.90;;;;;;5044346;28;20210;-93
2022/11/19 01:03:27;;;;;;;11.57;9.30;;;9.40;99.90;;;;;;5054595;28;20579;-90
2022/11/19 01:05:54;;;;;;;13.80;9.67;;;9.30;99.90;;;;;;5053789;28;20584;-89
2022/11/19 01:08:23;;;;;;;13.87;10.00;;;9.30;99.90;;;;;;5053948;28;20214;-87
2022/11/19 01:10:50;;;;;;;10.90;9.07;;;9.40;99.90;;;;;;5053098;28;20206;-86
2022/11/19 01:13:35;;;;;;;10.93;9.43;;;9.40;99.90;;;;;;5053004;28;20206;-85
2022/11/19 01:16:04;;;;;;;13.93;9.47;;;9.50;99.90;;;;;;5041595;28;20721;-87
2022/11/19 01:18:31;;;;;;;13.23;9.73;;;9.40;99.90;;;;;;5053693;28;20213;-85
2022/11/19 01:20:58;;;;;;;11.17;9.83;;;9.40;99.90;;;;;;5054075;28;20206;-87
2022/11/19 01:23:28;;;;;;;17.57;10.07;;;9.40;99.90;;;;;;5052864;28;20230;-86
2022/11/19 01:25:55;;;;;;;12.63;9.70;;;9.40;99.90;;;;;;5052751;28;20210;-87
2022/11/19 01:28:21;;;;;;;14.60;10.23;;;9.50;99.90;;;;;;5053213;28;20209;-87
2022/11/19 01:30:48;;;;;;;11.00;9.63;;;9.50;99.90;;;;;;5053446;28;20199;-86
2022/11/19 01:33:15;;;;;;;15.43;9.90;;;9.40;99.90;;;;;;5053178;28;20206;-86
2022/11/19 01:35:43;;;;;;;13.03;9.13;;;9.40;99.90;;;;;;5052701;28;20673;-88
2022/11/19 01:38:10;;;;;;;13.77;10.00;;;9.30;99.90;;;;;;5052614;28;20206;-87
2022/11/19 01:40:44;;;;;;;15.32;13.73;;;9.40;99.90;;;;;;5052808;28;20437;-86
2022/11/19 01:43:12;;;;;;;14.43;10.90;;;9.50;99.90;;;;;;5053079;28;20210;-86
2022/11/19 01:45:41;;;;;;;14.90;10.67;;;9.50;99.90;;;;;;5015493;28;1097871;-87
2022/11/19 01:48:12;;;;;;;13.20;10.57;;;9.50;99.90;;;;;;5053842;28;20215;-87
2022/11/19 01:50:45;;;;;;;14.37;11.00;;;9.40;99.90;;;;;;5055314;28;20213;-86
2022/11/19 01:53:13;;;;;;;12.13;10.70;;;9.30;99.90;;;;;;5052992;28;20652;-86
2022/11/19 01:55:42;;;;;;;14.33;10.60;;;9.30;99.90;;;;;;5053362;28;20203;-86
2022/11/19 01:58:14;;;;;;;15.70;11.57;;;9.50;99.90;;;;;;5067191;28;20211;-86
2022/11/19 02:00:41;;;;;;;15.70;11.50;;;9.60;99.90;;;;;;5053739;28;20540;-87
2022/11/19 02:03:11;;;;;;;13.30;11.13;;;9.60;99.90;;;;;;5052722;28;20209;-88
2022/11/19 02:05:40;;;;;;;14.30;10.40;;;9.70;99.90;;;;;;5053741;28;20222;-91
2022/11/19 02:08:08;;;;;;;12.80;9.93;;;9.80;99.90;;;;;;5053798;28;20210;-87
2022/11/19 02:10:45;;;;;;;14.23;10.75;;;9.70;99.90;;;;;;5053228;28;20441;-88
2022/11/19 02:13:25;;;;;;;12.70;8.67;;;9.80;99.90;;;;;;5055166;28;20214;-90
2022/11/19 02:16:01;;;;;;;15.70;8.77;;;9.70;99.90;;;;;;5056899;28;20206;-89
2022/11/19 02:18:47;;;;;;;11.13;8.50;;;9.60;99.90;;;;;;5054797;28;20654;-87
2022/11/19 02:21:26;;;;;;;10.77;7.97;;;9.50;99.90;;;;;;5053911;28;20218;-88
2022/11/19 02:24:37;;;;;;;11.63;8.40;;;9.50;99.90;;;;;;5055008;28;20682;-92
2022/11/19 02:27:40;;;;;;;11.07;8.27;;;9.40;99.90;;;;;;5057091;28;20190;-95
2022/11/19 02:30:15;;;;;;;8.97;8.07;;;9.30;99.90;;;;;;5055606;28;20202;-95
2022/11/19 02:33:03;;;;;;;11.17;8.07;;;9.20;99.90;;;;;;5059734;28;20210;-91
2022/11/19 02:35:48;;;;;;;9.43;7.97;;;9.30;99.90;;;;;;5060621;28;20210;-92
2022/11/19 02:38:30;;;;;;;10.60;7.37;;;9.40;99.90;;;;;;5060285;28;20214;-94
2022/11/19 02:41:32;;;;;;;12.33;7.50;;;9.40;99.90;;;;;;5061745;28;20252;-88
2022/11/19 02:44:57;;;;;;;11.87;8.47;;;9.40;99.90;;;;;;5059663;28;20222;-90
2022/11/19 02:46:47;;;;;;;10.10;8.70;;;9.50;99.90;;;;;;5058239;28;20207;-92
2022/11/19 02:49:15;;;;;;;8.57;7.37;;;9.50;99.90;;;;;;5060771;28;20191;-95
2022/11/19 02:51:42;;;;;;;10.67;8.20;;;9.50;99.90;;;;;;5043169;28;20199;-95
2022/11/19 02:54:09;;;;;;;12.20;8.10;;;9.60;99.90;;;;;;5060082;28;20205;-94
2022/11/19 02:56:51;;;;;;;9.97;8.50;;;9.60;99.90;;;;;;5059568;28;20212;-95
2022/11/19 03:04:57;;;;;;;11.53;8.40;;;9.60;99.90;;;;;;5060835;28;20238;-95
2022/11/19 03:07:24;;;;;;;11.57;8.20;;;9.50;99.90;;;;;;5061041;28;20206;-91
2022/11/19 03:09:56;;;;;;;10.63;8.20;;;9.60;99.90;;;;;;5060298;28;20191;-91
2022/11/19 03:12:37;;;;;;;10.77;8.40;;;9.60;99.90;;;;;;5059464;28;20187;-91
2022/11/19 03:18:02;;;;;;;8.70;7.80;;;9.60;99.90;;;;;;5059370;28;20822;-91
2022/11/19 03:20:34;;;;;;;12.47;9.03;;;9.50;99.90;;;;;;5060092;28;20224;-96
2022/11/19 03:23:04;;;;;;;10.80;8.57;;;9.60;99.90;;;;;;5060556;28;20210;-94
2022/11/19 03:25:38;;;;;;;10.87;8.40;;;9.60;99.90;;;;;;5060529;28;20232;-95
2022/11/19 03:28:11;;;;;;;10.77;8.40;;;9.60;99.90;;;;;;5061137;28;20202;-93
2022/11/19 03:30:40;;;;;;;10.93;9.33;;;9.70;99.90;;;;;;5060512;28;20350;-94
2022/11/19 03:33:20;;;;;;;12.27;9.70;;;9.70;99.90;;;;;;5060725;28;20202;-93
2022/11/19 03:35:52;;;;;;;10.30;8.90;;;9.70;99.90;;;;;;5061020;28;20214;-93
2022/11/19 03:38:27;;;;;;;12.37;8.93;;;9.70;99.90;;;;;;5060871;28;20209;-96
2022/11/19 03:40:54;;;;;;;11.63;10.50;;;9.80;99.90;;;;;;5061739;28;20425;-94
2022/11/19 03:43:27;;;;;;;9.33;8.13;;;9.90;99.90;;;;;;5060101;28;20191;-94
2022/11/19 03:45:59;;;;;;;10.23;8.33;;;9.90;99.90;;;;;;5060856;28;20238;-96
2022/11/19 03:48:29;;;;;;;10.40;8.07;;;10.00;99.90;;;;;;5060435;28;20191;-91
2022/11/19 03:51:03;;;;;;;11.57;8.13;;;9.90;99.90;;;;;;5060864;28;20207;-92
2022/11/19 03:53:31;;;;;;;8.57;7.60;;;9.90;99.90;;;;;;5061236;28;20193;-96
2022/11/19 03:56:03;;;;;;;10.53;8.07;;;9.80;99.90;;;;;;5062081;28;20206;-91
2022/11/19 03:58:36;;;;;;;8.57;7.37;;;9.80;99.90;;;;;;5061460;28;20202;-96
2022/11/19 04:01:03;;;;;;;8.40;6.67;;;9.70;99.90;;;;;;5062195;28;20243;-96
2022/11/19 04:03:32;;;;;;;9.77;6.67;;;9.50;99.90;;;;;;5061083;28;20222;-94
2022/11/19 04:05:59;;;;;;;7.60;6.80;;;9.40;99.90;;;;;;5061390;28;20240;-94
2022/11/19 04:08:27;;;;;;;7.20;6.53;;;9.30;99.90;;;;;;5061891;28;20209;-94
2022/11/19 04:10:55;;;;;;;9.65;8.75;;;9.20;99.90;;;;;;5059867;28;20909;-96
2022/11/19 04:13:22;;;;;;;8.47;7.57;;;9.20;99.90;;;;;;5061706;28;20191;-95
2022/11/19 04:15:49;;;;;;;8.03;7.17;;;9.30;99.90;;;;;;5062370;28;20552;-92
2022/11/19 04:18:16;;;;;;;8.33;7.33;;;9.40;99.90;;;;;;5060838;28;20203;-95
2022/11/19 04:20:45;;;;;;;10.30;7.67;;;9.50;99.90;;;;;;5060817;28;20661;-93
2022/11/19 04:23:12;;;;;;;7.77;6.97;;;9.60;99.90;;;;;;5061343;28;20650;-93
2022/11/19 04:25:45;;;;;;;10.90;7.60;;;9.70;99.90;;;;;;5060627;28;20214;-94
2022/11/19 04:28:12;;;;;;;8.17;7.37;;;9.70;99.90;;;;;;5061418;28;20190;-90
2022/11/19 04:30:39;;;;;;;10.57;7.47;;;9.70;99.90;;;;;;5060799;28;20190;-93
2022/11/19 04:33:06;;;;;;;12.13;7.77;;;9.70;99.90;;;;;;5059886;28;20214;-94
2022/11/19 04:35:33;;;;;;;9.83;7.83;;;9.60;99.90;;;;;;5059292;28;20210;-95
2022/11/19 04:38:01;;;;;;;8.27;7.47;;;9.70;99.90;;;;;;5061108;28;20278;-89
2022/11/19 04:40:28;;;;;;;9.00;8.00;;;9.70;99.90;;;;;;5059777;28;20204;-95
2022/11/19 04:42:55;;;;;;;8.33;7.63;;;9.70;99.90;;;;;;5059802;28;20199;-96
2022/11/19 04:45:22;;;;;;;9.20;7.87;;;9.70;99.90;;;;;;5059225;28;20234;-96
2022/11/19 04:47:49;;;;;;;14.53;8.93;;;9.70;99.90;;;;;;5055890;28;20210;-94
2022/11/19 04:50:22;;;;;;;13.00;10.13;;;9.70;99.90;;;;;;5046571;28;20191;-95
2022/11/19 04:52:54;;;;;;;9.40;7.93;;;9.70;99.90;;;;;;5061367;28;20209;-95
2022/11/19 04:55:25;;;;;;;10.07;8.40;;;9.70;99.90;;;;;;5061498;28;20229;-95
2022/11/19 04:57:53;;;;;;;8.80;8.07;;;9.70;99.90;;;;;;5062327;28;20207;-96
2022/11/19 05:00:26;;;;;;;10.40;8.63;;;9.70;99.90;;;;;;5062309;28;20202;-96
2022/11/19 05:02:59;;;;;;;8.43;7.43;;;9.70;99.90;;;;;;5060938;28;20222;-95
2022/11/19 05:05:26;;;;;;;9.57;8.60;;;9.70;99.90;;;;;;5061074;28;20313;-96
2022/11/19 05:07:52;;;;;;;9.43;7.83;;;9.60;99.90;;;;;;5071583;28;20237;-88
2022/11/19 05:10:19;;;;;;;11.82;9.52;;;9.70;99.90;;;;;;5078190;28;20417;-86
2022/11/19 05:12:47;;;;;;;10.57;8.73;;;9.70;99.90;;;;;;5075525;28;20202;-96
2022/11/19 05:15:14;;;;;;;11.23;8.90;;;9.70;99.90;;;;;;5062747;28;20202;-96
2022/11/19 05:17:41;;;;;;;11.00;8.67;;;9.70;99.90;;;;;;5061776;28;20199;-96
2022/11/19 05:20:09;;;;;;;10.63;8.43;;;9.60;99.90;;;;;;5062497;28;20211;-96
2022/11/19 05:22:36;;;;;;;10.60;8.40;;;9.70;99.90;;;;;;5063140;28;20213;-96
2022/11/19 05:25:03;;;;;;;10.80;8.80;;;9.60;99.90;;;;;;5061600;28;20218;-95
2022/11/19 05:27:29;;;;;;;12.43;9.30;;;9.70;99.90;;;;;;5061763;28;20615;-96
2022/11/19 05:29:57;;;;;;;10.90;9.50;;;9.60;99.90;;;;;;5061586;28;20213;-96
2022/11/19 05:32:25;;;;;;;13.27;9.60;;;9.20;99.90;;;;;;5061137;28;20203;-96
2022/11/19 05:34:52;;;;;;;11.53;9.60;;;9.40;99.90;;;;;;5061895;28;20203;-95
2022/11/19 05:37:20;;;;;;;11.93;9.33;;;9.60;99.90;;;;;;5062968;28;20209;-96
2022/11/19 05:39:47;;;;;;;10.47;9.40;;;9.70;99.90;;;;;;5062154;28;20206;-95
2022/11/19 05:42:14;;;;;;;15.13;13.35;;;9.90;99.90;;;;;;5058759;28;20434;-94
2022/11/19 05:44:40;;;;;;;12.40;10.23;;;9.90;99.90;;;;;;5059414;28;20230;-96
2022/11/19 05:47:09;;;;;;;15.23;11.40;;;10.00;99.90;;;;;;5059379;28;20199;-94
2022/11/19 05:49:36;;;;;;;11.27;9.97;;;10.00;99.90;;;;;;5045316;28;20214;-95
2022/11/19 05:52:03;;;;;;;13.53;10.40;;;9.90;99.90;;;;;;5059020;28;20226;-96
2022/11/19 05:54:30;;;;;;;13.10;10.87;;;9.80;99.90;;;;;;5052777;28;20229;-96
2022/11/19 05:56:58;;;;;;;12.93;10.60;;;9.80;99.90;;;;;;5043024;28;20206;-96
2022/11/19 05:59:25;;;;;;;12.80;10.60;;;9.80;99.90;;;;;;5053083;28;20217;-94
2022/11/19 06:01:51;;;;;;;12.20;10.77;;;9.80;99.90;;;;;;5053394;28;20194;-96
2022/11/19 06:04:20;;;;;;;13.70;10.37;;;9.70;99.90;;;;;;5053866;28;20206;-96
2022/11/19 06:06:46;;;;;;;16.47;11.47;;;9.70;99.90;;;;;;5055443;28;20206;-94
2022/11/19 06:09:13;;;;;;;13.10;10.73;;;9.70;99.90;;;;;;5057408;28;20209;-96
2022/11/19 06:11:49;;;;;;;14.93;11.77;;;9.50;99.90;;;;;;5057529;28;20211;-96
2022/11/19 06:14:17;;;;;;;14.07;10.43;;;9.50;99.90;;;;;;5057608;28;20206;-96
2022/11/19 06:16:44;;;;;;;15.07;11.47;;;9.40;99.90;;;;;;5057711;28;20229;-96
2022/11/19 06:19:11;;;;;;;14.80;11.63;;;9.40;99.90;;;;;;5057692;28;20195;-96
2022/11/19 06:21:39;;;;;;;14.80;11.53;;;9.40;99.90;;;;;;5057626;28;20199;-95
2022/11/19 06:24:06;;;;;;;14.10;11.40;;;9.50;99.90;;;;;;5057834;28;20205;-95
2022/11/19 06:26:33;;;;;;;14.17;11.70;;;9.60;99.90;;;;;;5057562;28;20596;-94
2022/11/19 06:29:00;;;;;;;14.07;11.83;;;9.70;99.90;;;;;;5057129;28;20203;-96
2022/11/19 06:31:28;;;;;;;13.13;11.80;;;9.60;99.90;;;;;;5066255;28;20206;-95
2022/11/19 06:33:55;;;;;;;13.87;11.53;;;9.60;99.90;;;;;;5077616;28;20221;-96
2022/11/19 06:36:23;;;;;;;13.17;11.80;;;9.60;99.90;;;;;;5078106;28;20194;-94
2022/11/19 06:38:51;;;;;;;16.80;12.07;;;9.70;99.90;;;;;;5079768;28;20212;-95
2022/11/19 06:41:19;;;;;;;14.30;11.57;;;9.80;99.90;;;;;;5075996;28;20201;-95
2022/11/19 06:43:46;;;;;;;18.27;13.87;;;9.90;99.90;;;;;;5062541;28;20198;-96
2022/11/19 06:46:14;;;;;;;20.03;14.30;;;9.70;99.90;;;;;;5059788;28;20230;-95
2022/11/19 06:48:41;;;;;;;23.83;14.93;;;9.60;99.90;;;;;;5059503;28;20195;-95
2022/11/19 06:51:08;;;;;;;20.90;14.97;;;9.60;99.90;;;;;;5058705;28;20208;-94
2022/11/19 06:53:35;;;;;;;19.10;13.93;;;9.60;99.90;;;;;;5057129;28;20222;-94
2022/11/19 06:56:05;;;;;;;16.50;13.00;;;9.50;99.90;;;;;;5057174;28;20644;-94
2022/11/19 06:58:32;;;;;;;17.20;13.33;;;9.50;99.90;;;;;;5060680;28;20190;-94
2022/11/19 07:01:00;;;;;;;19.70;14.10;;;9.50;99.90;;;;;;5070963;28;20657;-90
2022/11/19 07:03:26;;;;;;;19.47;14.70;;;9.50;99.90;;;;;;5076199;28;20256;-89
2022/11/19 07:05:57;;;;;;;16.90;13.43;;;9.60;99.90;;;;;;5076599;28;20724;-89
2022/11/19 07:08:24;;;;;;;14.83;12.90;;;9.60;99.90;;;;;;5076307;28;20203;-87
2022/11/19 07:10:51;;;;;;;19.50;14.73;;;9.50;99.90;;;;;;5076706;28;20428;-90
2022/11/19 07:13:19;;;;;;;16.67;13.77;;;9.50;99.90;;;;;;5061937;28;20201;-87
2022/11/19 07:15:46;;;;;;;18.37;13.67;;;9.50;99.90;;;;;;5055932;28;20704;-89
2022/11/19 07:18:14;;;;;;;17.80;13.57;;;9.50;99.90;;;;;;5056378;28;20205;-89
2022/11/19 07:20:41;;;;;;;17.57;12.53;;;9.60;99.90;;;;;;5056038;28;20213;-89
2022/11/19 07:23:10;;;;;;;23.37;14.17;;;9.50;99.90;;;;;;5061763;28;20264;-88
2022/11/19 07:25:38;;;;;;;17.10;13.40;;;9.50;99.90;;;;;;5076200;28;20704;-93
2022/11/19 07:28:05;;;;;;;19.23;12.47;;;9.50;99.90;;;;;;5077183;28;20208;-92
2022/11/19 07:30:33;;;;;;;15.97;12.77;;;9.10;99.90;;;;;;5078647;28;20202;-91
2022/11/19 07:33:00;;;;;;;19.13;14.00;;;9.10;99.90;;;;;;5077547;28;20206;-93
2022/11/19 07:35:27;;;;;;;22.07;15.60;;;9.30;99.90;;;;;;5076499;28;20216;-91
2022/11/19 07:37:54;;;;;;;19.37;15.17;;;9.40;99.90;;;;;;5076356;28;20201;-91
2022/11/19 07:40:22;;;;;;;23.67;15.80;;;9.40;99.90;;;;;;5058564;28;20209;-91
2022/11/19 07:42:48;;;;;;;21.10;15.30;;;9.40;99.90;;;;;;5076323;28;20208;-91
2022/11/19 07:45:15;;;;;;;20.40;15.30;;;9.40;99.90;;;;;;5075337;28;20230;-91
2022/11/19 07:47:43;;;;;;;18.93;14.70;;;9.50;99.90;;;;;;5075900;28;20198;-91
2022/11/19 07:50:11;;;;;;;20.43;15.53;;;9.50;99.90;;;;;;5075654;28;20206;-92
2022/11/19 07:52:38;;;;;;;20.77;15.50;;;9.50;99.90;;;;;;5075989;28;20202;-91
2022/11/19 07:55:06;;;;;;;17.63;14.50;;;9.50;99.90;;;;;;5075343;28;20258;-91
2022/11/19 07:57:33;;;;;;;19.13;14.70;;;9.50;99.90;;;;;;5075552;28;20665;-92
2022/11/19 08:00:00;;;;;;;15.17;13.53;;;9.30;99.90;;;;;;5075990;28;20202;-93
2022/11/19 08:02:27;;;;;;;14.63;10.73;;;9.20;99.90;;;;;;5075850;28;20214;-92
2022/11/19 08:04:55;;;;;;;12.13;10.30;;;9.00;99.90;;;;;;5075855;28;20205;-92
2022/11/19 08:07:22;;;;;;;9.27;8.37;;;8.80;99.90;;;;;;5076228;28;20206;-94
2022/11/19 08:09:49;;;;;;;10.80;9.20;;;8.50;99.90;;;;;;5076738;28;20193;-92
2022/11/19 08:12:16;;;;;;;11.43;10.38;;;8.70;99.90;;;;;;5074875;28;20427;-93
2022/11/19 08:14:43;;;;;;;9.60;8.13;;;8.50;99.90;;;;;;5075094;28;20202;-92
2022/11/19 08:20:00;;;;;;;8.00;7.20;;;8.20;99.90;;;;;;5077424;28;20188;-93
2022/11/19 08:22:28;;;;;;;9.30;7.43;;;8.30;99.90;;;;;;5076175;28;20194;-93
2022/11/19 08:24:56;;;;;;;9.23;7.77;;;8.20;99.90;;;;;;5075400;28;20261;-92
2022/11/19 08:27:23;;;;;;;8.87;7.23;;;8.00;99.90;;;;;;5074809;28;20233;-91
2022/11/19 08:29:53;;;;;;;8.47;7.60;;;7.90;99.90;;;;;;5074590;28;20204;-93
2022/11/19 08:32:20;;;;;;;9.10;8.07;;;7.80;99.90;;;;;;5074862;28;20212;-92
2022/11/19 08:34:52;;;;;;;10.17;7.50;;;7.80;99.90;;;;;;5075282;28;20633;-93
2022/11/19 08:37:23;;;;;;;10.03;8.23;;;8.00;99.90;;;;;;5075100;28;20201;-93
2022/11/19 08:39:51;;;;;;;11.52;10.32;;;8.00;99.90;;;;;;5074687;28;20504;-92
2022/11/19 08:45:03;;;;;;;9.93;8.90;;;7.60;99.90;;;;;;5074828;28;20332;-93
2022/11/19 08:47:31;;;;;;;10.30;8.63;;;7.60;99.90;;;;;;5074663;28;20209;-93
2022/11/19 08:50:00;;;;;;;11.67;9.20;;;7.70;99.90;;;;;;5075072;28;20205;-91
2022/11/19 08:52:30;;;;;;;11.43;9.87;;;7.70;99.90;;;;;;5074460;28;20186;-95
2022/11/19 08:55:00;;;;;;;10.67;9.60;;;7.50;99.90;;;;;;5075403;28;20222;-94
2022/11/19 08:57:28;;;;;;;11.33;10.23;;;7.80;99.90;;;;;;5066401;28;20209;-95
2022/11/19 08:59:55;;;;;;;12.10;10.60;;;7.80;99.90;;;;;;5071406;28;20745;-93
2022/11/19 09:02:21;;;;;;;11.30;10.20;;;7.60;99.90;;;;;;5068770;28;20210;-93
2022/11/19 09:04:48;;;;;;;11.90;10.63;;;7.50;99.90;;;;;;5058899;28;20206;-93
2022/11/19 09:07:15;;;;;;;11.23;10.13;;;7.60;99.90;;;;;;5054020;28;20313;-94
2022/11/19 09:09:43;;;;;;;11.50;10.10;;;7.60;99.90;;;;;;5054543;28;20206;-94
2022/11/19 09:12:11;;;;;;;11.80;10.10;;;7.30;99.90;;;;;;5057059;28;20660;-94
2022/11/19 09:14:37;;;;;;;12.23;10.57;;;7.10;99.90;;;;;;5054598;28;20190;-95
2022/11/19 09:17:04;;;;;;;13.03;11.13;;;7.00;99.90;;;;;;5054264;28;20542;-93
2022/11/19 09:19:31;;;;;;;13.20;10.53;;;7.10;99.90;;;;;;5054428;28;20285;-93
2022/11/19 09:21:59;;;;;;;11.43;10.23;;;6.90;99.90;;;;;;5065186;28;20205;-92
2022/11/19 09:24:26;;;;;;;11.10;8.60;;;6.90;99.90;;;;;;5057126;28;20207;-92
2022/11/19 09:26:55;;;;;;;7.27;6.63;;;7.00;99.90;;;;;;5062280;28;20226;-94
2022/11/19 09:29:22;;;;;;;7.20;6.30;;;6.80;99.90;;;;;;5059730;28;20197;-93
2022/11/19 09:31:48;;;;;;;8.83;7.93;;;6.90;99.90;;;;;;5053608;28;20198;-94
2022/11/19 09:34:15;;;;;;;6.43;5.83;;;6.90;99.90;;;;;;5053507;28;20198;-93
2022/11/19 09:36:43;;;;;;;6.30;5.70;;;6.60;99.90;;;;;;5057460;28;20633;-94
2022/11/19 09:39:10;;;;;;;6.43;5.83;;;6.50;99.90;;;;;;5074129;28;20202;-93
2022/11/19 09:41:45;;;;;;;9.03;8.17;;;6.50;99.90;;;;;;5072582;28;20649;-95
2022/11/19 09:44:41;;;;;;;6.63;6.07;;;6.60;99.90;;;;;;5074323;28;20194;-96
2022/11/19 09:47:20;;;;;;;8.90;7.30;;;6.50;99.90;;;;;;5063122;28;20241;-96
2022/11/19 09:49:54;;;;;;;7.20;6.60;;;6.40;99.90;;;;;;5074109;28;20206;-95
2022/11/19 09:52:25;;;;;;;7.57;6.53;;;6.50;99.90;;;;;;5073906;28;20202;-91
2022/11/19 09:54:55;;;;;;;7.47;6.77;;;6.60;99.90;;;;;;5074526;28;20225;-94
2022/11/19 09:57:28;;;;;;;8.13;7.17;;;6.50;99.90;;;;;;5076150;28;20206;-92
2022/11/19 10:00:00;;;;;;;8.43;7.63;;;6.40;99.90;;;;;;5074122;28;20692;-88
2022/11/19 10:02:27;;;;;;;9.50;8.33;;;6.40;99.90;;;;;;5073218;28;20202;-90
2022/11/19 10:04:54;;;;;;;9.23;7.70;;;6.30;99.90;;;;;;5073704;28;20206;-92
2022/11/19 10:07:30;;;;;;;8.53;7.57;;;6.40;99.90;;;;;;5073443;28;20233;-91
2022/11/19 10:10:10;;;;;;;9.83;7.90;;;6.50;99.90;;;;;;5081397;28;20169;-93
2022/11/19 10:13:10;;;;;;;9.33;8.47;;;6.50;99.90;;;;;;5088880;28;20667;-91
2022/11/19 10:15:57;;;;;;;9.40;7.50;;;6.40;99.90;;;;;;5089585;28;20270;-89
2022/11/19 10:18:52;;;;;;;9.60;8.60;;;6.40;99.90;;;;;;5092650;28;20217;-90
2022/11/19 10:21:32;;;;;;;10.20;9.20;;;6.40;99.90;;;;;;5095536;28;20269;-91
2022/11/19 10:24:16;;;;;;;8.67;7.77;;;6.30;99.90;;;;;;5095812;28;20221;-93
2022/11/19 10:27:08;;;;;;;12.90;10.10;;;6.40;99.90;;;;;;5090687;28;20247;-90
2022/11/19 10:29:39;;;;;;;9.97;8.97;;;6.30;99.90;;;;;;5090239;28;20232;-90
2022/11/19 10:32:31;;;;;;;10.47;8.93;;;6.30;99.90;;;;;;5089617;28;20212;-89
2022/11/19 10:35:06;;;;;;;9.50;8.57;;;6.30;99.90;;;;;;5087010;28;20683;-89
2022/11/19 10:37:38;;;;;;;10.90;9.80;;;6.20;99.90;;;;;;5086796;28;20216;-89
2022/11/19 10:40:18;;;;;;;10.80;9.40;;;6.00;99.90;;;;;;5087452;28;20190;-88
2022/11/19 10:42:51;;;;;;;10.47;9.40;;;6.20;99.90;;;;;;5086875;28;20200;-89
2022/11/19 10:45:36;;;;;;;9.67;8.77;;;6.20;99.90;;;;;;5077391;28;20210;-89
2022/11/19 10:48:10;;;;;;;10.20;9.07;;;6.30;99.90;;;;;;5077455;28;20222;-89
2022/11/19 10:50:37;;;;;;;10.53;9.37;;;6.20;99.90;;;;;;5077725;28;20209;-94
2022/11/19 10:53:11;;;;;;;9.67;8.63;;;6.10;99.90;;;;;;5075453;28;20317;-92
2022/11/19 10:55:41;;;;;;;10.50;9.40;;;6.10;99.90;;;;;;5076436;28;20670;-94
2022/11/19 10:58:13;;;;;;;10.53;9.50;;;5.90;99.90;;;;;;5077034;28;20213;-93
2022/11/19 11:00:42;;;;;;;11.40;9.97;;;5.90;99.90;;;;;;5076647;28;20191;-94
2022/11/19 11:03:18;;;;;;;10.37;9.37;;;5.90;99.90;;;;;;5076405;28;20240;-90
2022/11/19 11:06:00;;;;;;;10.33;9.00;;;6.10;99.90;;;;;;5076732;28;20205;-89
2022/11/19 11:08:26;;;;;;;11.73;9.50;;;5.90;99.90;;;;;;5072500;28;20653;-90
2022/11/19 11:10:53;;;;;;;10.10;8.50;;;5.80;99.90;;;;;;5076489;28;20186;-91
2022/11/19 11:16:26;;;;;;;11.20;9.20;;;6.00;99.90;;;;;;5079071;28;20677;-90
2022/11/19 11:18:57;;;;;;;10.53;9.43;;;5.90;99.90;;;;;;5080166;28;20691;-89
2022/11/19 11:21:31;;;;;;;11.13;9.43;;;5.90;99.90;;;;;;5079384;28;20565;-91
2022/11/19 11:23:58;;;;;;;10.73;9.57;;;5.80;99.90;;;;;;5080180;28;20196;-91
2022/11/19 11:26:28;;;;;;;11.50;9.37;;;5.90;99.90;;;;;;5079399;28;20226;-91
2022/11/19 11:29:01;;;;;;;11.53;10.13;;;5.80;99.90;;;;;;5079283;28;20190;-89
2022/11/19 11:31:35;;;;;;;11.77;9.87;;;5.90;99.90;;;;;;5060766;28;20209;-89
2022/11/19 11:34:04;;;;;;;11.37;9.83;;;5.90;99.90;;;;;;5076088;28;20206;-88
2022/11/19 11:36:33;;;;;;;14.40;11.07;;;6.10;99.90;;;;;;5075946;28;20680;-91
2022/11/19 11:39:02;;;;;;;10.50;9.40;;;6.20;99.90;;;;;;5063854;28;20393;-91
2022/11/19 11:41:38;;;;;;;11.80;10.60;;;5.90;99.90;;;;;;5062820;28;20647;-89
2022/11/19 11:44:08;;;;;;;11.90;10.20;;;6.00;99.90;;;;;;5036931;28;20191;-89
2022/11/19 11:46:37;;;;;;;12.37;9.63;;;6.20;99.90;;;;;;5036382;28;20609;-89
2022/11/19 11:49:09;;;;;;;11.50;9.47;;;6.30;99.90;;;;;;5035926;28;20209;-89
2022/11/19 11:51:39;;;;;;;13.33;10.87;;;6.30;99.90;;;;;;5035840;28;20198;-89
2022/11/19 11:54:16;;;;;;;12.90;11.37;;;6.10;99.90;;;;;;5035881;28;20219;-88
2022/11/19 11:56:48;;;;;;;16.93;13.00;;;5.90;99.90;;;;;;5056693;28;20214;-87
2022/11/19 11:59:26;;;;;;;17.57;12.87;;;5.80;99.90;;;;;;5056155;28;20691;-87
2022/11/19 12:02:04;;;;;;;17.67;13.73;;;5.70;99.90;;;;;;5050405;28;20202;-88
2022/11/19 12:04:36;;;;;;;17.33;13.87;;;5.60;99.90;;;;;;5059006;28;20665;-88
2022/11/19 12:07:14;;;;;;;16.10;12.83;;;5.70;99.90;;;;;;5056547;28;20751;-87
2022/11/19 12:09:50;;;;;;;15.77;12.90;;;5.50;99.90;;;;;;5035410;28;20206;-88
2022/11/19 12:12:26;;;;;;;17.83;14.27;;;5.50;99.90;;;;;;5049804;28;20241;-87
2022/11/19 12:14:58;;;;;;;18.27;14.67;;;5.50;99.90;;;;;;5043838;28;20197;-87
2022/11/19 12:18:05;;;;;;;18.73;15.03;;;5.60;99.90;;;;;;5061714;28;20734;-87
2022/11/19 12:20:43;;;;;;;20.60;16.27;;;5.60;99.90;;;;;;5055436;28;20206;-87
2022/11/19 12:23:29;;;;;;;18.73;15.53;;;5.70;99.90;;;;;;5055169;28;20202;-89
2022/11/19 12:26:11;;;;;;;20.97;15.47;;;5.60;99.90;;;;;;5055328;28;20206;-89
2022/11/19 12:28:58;;;;;;;19.90;15.33;;;5.50;99.90;;;;;;5057627;28;20218;-88
2022/11/19 12:31:40;;;;;;;20.30;15.10;;;5.30;99.90;;;;;;5058390;28;20202;-89
2022/11/19 12:34:24;;;;;;;17.23;13.97;;;5.30;99.90;;;;;;5056968;28;20527;-89
2022/11/19 12:37:04;;;;;;;23.77;16.10;;;5.50;99.90;;;;;;5057124;28;20202;-88
2022/11/19 12:39:41;;;;;;;28.27;18.97;;;5.60;99.90;;;;;;5057019;28;20344;-90
2022/11/19 12:42:33;;;;;;;30.67;21.57;;;5.50;99.90;;;;;;5043258;28;20213;-89
2022/11/19 12:45:07;;;;;;;30.30;21.40;;;5.40;99.90;;;;;;5055292;28;20256;-88
2022/11/19 12:47:51;;;;;;;30.43;20.47;;;5.40;99.90;;;;;;5057151;28;20232;-87
2022/11/19 12:50:22;;;;;;;32.65;25.95;;;5.40;99.90;;;;;;5055797;28;20439;-88
2022/11/19 12:53:09;;;;;;;30.53;22.10;;;5.50;99.90;;;;;;5056427;28;20234;-87
2022/11/19 12:55:49;;;;;;;31.70;21.47;;;5.40;99.90;;;;;;5057581;28;20202;-91
2022/11/19 12:58:25;;;;;;;30.93;21.03;;;5.40;99.90;;;;;;5058245;28;20198;-89
2022/11/19 13:00:58;;;;;;;28.87;19.70;;;5.60;99.90;;;;;;5057561;28;20202;-89
2022/11/19 13:03:40;;;;;;;29.07;20.07;;;5.30;99.90;;;;;;5057825;28;20569;-88
2022/11/19 13:06:16;;;;;;;34.10;22.10;;;5.40;99.90;;;;;;5057865;28;20212;-89
2022/11/19 13:08:49;;;;;;;29.00;20.30;;;5.40;99.90;;;;;;5056429;28;20704;-90
2022/11/19 13:11:21;;;;;;;27.73;19.67;;;5.40;99.90;;;;;;5056348;28;20217;-91
2022/11/19 13:13:52;;;;;;;31.87;20.43;;;5.10;99.90;;;;;;5054883;28;20233;-89
2022/11/19 13:16:21;;;;;;;30.07;20.17;;;5.10;99.90;;;;;;5053977;28;20210;-89
2022/11/19 13:18:52;;;;;;;29.60;20.67;;;5.10;99.90;;;;;;5054940;28;20225;-90
2022/11/19 13:21:32;;;;;;;34.43;21.23;;;5.10;99.90;;;;;;5071988;28;20209;-90
2022/11/19 13:24:11;;;;;;;27.67;18.67;;;5.10;99.90;;;;;;5050119;28;20213;-90